createdAt,value
2022-08-14T00:02:02.407Z,6.10
2022-08-14T00:04:34.304Z,6.35
2022-08-14T00:07:10.540Z,6.05
2022-08-14T00:09:55.171Z,6.63
2022-08-14T00:12:33.587Z,6.15
2022-08-14T00:15:23.942Z,6.57
2022-08-14T00:17:53.434Z,6.10
2022-08-14T00:20:30.286Z,6.22
2022-08-14T00:22:58.345Z,6.30
2022-08-14T00:25:41.845Z,6.40
2022-08-14T00:28:15.617Z,6.38
2022-08-14T00:30:48.001Z,6.50
2022-08-14T00:33:15.935Z,6.47
2022-08-14T00:36:34.962Z,5.90
2022-08-14T00:38:30.041Z,6.47
2022-08-14T00:40:58.879Z,6.70
2022-08-14T00:43:25.528Z,6.30
2022-08-14T00:46:02.578Z,6.50
2022-08-14T00:48:34.890Z,6.45
2022-08-14T00:51:08.725Z,6.60
2022-08-14T00:53:36.974Z,7.30
2022-08-14T00:56:07.066Z,6.10
2022-08-14T00:58:36.327Z,5.53
2022-08-14T01:01:12.708Z,5.97
2022-08-14T01:03:42.303Z,7.35
2022-08-14T01:06:10.805Z,6.68
2022-08-14T01:08:51.538Z,6.80
2022-08-14T01:11:31.525Z,7.00
2022-08-14T01:14:05.013Z,6.70
2022-08-14T01:16:53.133Z,6.68
2022-08-14T01:19:41.272Z,6.90
2022-08-14T01:22:12.598Z,7.00
2022-08-14T01:24:41.411Z,7.22
2022-08-14T01:27:19.721Z,7.30
2022-08-14T01:29:59.144Z,7.28
2022-08-14T01:32:30.159Z,7.18
2022-08-14T01:35:20.998Z,7.30
2022-08-14T01:37:54.465Z,6.55
2022-08-14T01:40:25.548Z,6.70
2022-08-14T01:43:00.063Z,7.57
2022-08-14T01:45:29.170Z,7.32
2022-08-14T01:48:03.249Z,7.95
2022-08-14T01:50:30.790Z,7.10
2022-08-14T01:53:01.558Z,6.85
2022-08-14T01:55:32.214Z,6.60
2022-08-14T01:58:02.287Z,7.40
2022-08-14T02:00:48.212Z,8.15
2022-08-14T02:03:16.092Z,8.07
2022-08-14T02:05:43.385Z,8.60
2022-08-14T02:08:10.532Z,7.97
2022-08-14T02:10:46.299Z,7.90
2022-08-14T02:13:16.090Z,8.15
2022-08-14T02:15:43.571Z,8.07
2022-08-14T02:18:10.527Z,8.20
2022-08-14T02:20:39.347Z,7.68
2022-08-14T02:23:08.179Z,7.93
2022-08-14T02:25:35.068Z,7.90
2022-08-14T02:28:22.970Z,7.60
2022-08-14T02:30:52.688Z,8.45
2022-08-14T02:33:21.166Z,8.43
2022-08-14T02:35:53.009Z,8.05
2022-08-14T02:38:29.408Z,8.35
2022-08-14T02:40:58.408Z,7.78
2022-08-14T02:43:25.919Z,8.52
2022-08-14T02:46:05.829Z,8.35
2022-08-14T02:49:03.350Z,7.88
2022-08-14T02:51:19.963Z,8.80
2022-08-14T02:53:46.685Z,8.10
2022-08-14T02:56:30.038Z,7.90
2022-08-14T02:59:05.660Z,8.05
2022-08-14T03:01:50.523Z,8.30
2022-08-14T03:04:20.421Z,7.57
2022-08-14T03:06:56.921Z,7.88
2022-08-14T03:09:25.798Z,8.45
2022-08-14T03:12:12.534Z,8.02
2022-08-14T03:14:51.646Z,8.82
2022-08-14T03:17:18.874Z,8.25
2022-08-14T03:19:49.758Z,8.35
2022-08-14T03:22:18.063Z,8.63
2022-08-14T03:24:44.587Z,8.20
2022-08-14T03:27:14.010Z,8.30
2022-08-14T03:29:40.834Z,8.50
2022-08-14T03:32:08.046Z,8.55
2022-08-14T03:34:47.988Z,8.60
2022-08-14T03:37:51.074Z,7.50
2022-08-14T03:40:07.471Z,8.25
2022-08-14T03:42:39.366Z,8.45
2022-08-14T03:45:25.402Z,8.65
2022-08-14T03:47:58.532Z,8.15
2022-08-14T03:50:30.840Z,8.55
2022-08-14T03:53:00.835Z,8.60
2022-08-14T03:55:28.457Z,8.40
2022-08-14T03:57:57.320Z,8.27
2022-08-14T04:00:42.973Z,9.25
2022-08-14T04:03:11.837Z,8.60
2022-08-14T04:05:43.485Z,8.32
2022-08-14T04:08:29.000Z,9.05
2022-08-14T04:10:57.342Z,8.93
2022-08-14T04:13:24.067Z,8.77
2022-08-14T04:15:56.162Z,8.77
2022-08-14T04:18:29.751Z,8.35
2022-08-14T04:20:58.021Z,8.32
2022-08-14T04:23:29.636Z,7.82
2022-08-14T04:26:04.835Z,8.68
2022-08-14T04:29:08.626Z,8.82
2022-08-14T04:32:56.477Z,8.43
2022-08-14T04:34:17.051Z,8.60
2022-08-14T04:37:07.416Z,8.55
2022-08-14T04:39:56.558Z,8.43
2022-08-14T04:42:47.510Z,8.68
2022-08-14T04:45:24.659Z,8.45
2022-08-14T04:48:10.807Z,8.68
2022-08-14T04:50:44.076Z,8.88
2022-08-14T04:53:14.438Z,8.07
2022-08-14T04:55:43.113Z,8.40
2022-08-14T04:58:21.311Z,8.68
2022-08-14T05:00:52.194Z,9.13
2022-08-14T05:03:23.165Z,8.05
2022-08-14T05:05:54.539Z,8.63
2022-08-14T05:08:31.895Z,8.43
2022-08-14T05:11:11.909Z,8.30
2022-08-14T05:14:16.136Z,8.50
2022-08-14T05:16:29.221Z,8.55
2022-08-14T05:19:19.161Z,8.48
2022-08-14T05:21:59.411Z,9.10
2022-08-14T05:24:28.747Z,8.32
2022-08-14T05:26:55.897Z,9.10
2022-08-14T05:29:23.192Z,8.93
2022-08-14T05:31:50.526Z,8.68
2022-08-14T05:34:23.828Z,8.15
2022-08-14T05:37:02.058Z,8.18
2022-08-14T05:39:29.806Z,8.38
2022-08-14T05:41:56.688Z,8.95
2022-08-14T05:44:29.200Z,9.02
2022-08-14T05:46:56.883Z,8.38
2022-08-14T05:49:32.874Z,9.10
2022-08-14T05:52:01.750Z,8.38
2022-08-14T05:54:30.643Z,8.00
2022-08-14T05:57:03.594Z,8.13
2022-08-14T05:59:39.145Z,8.48
2022-08-14T06:02:11.204Z,8.18
2022-08-14T06:04:39.117Z,8.20
2022-08-14T06:07:06.152Z,7.82
2022-08-14T06:09:36.019Z,8.07
2022-08-14T06:12:10.619Z,7.75
2022-08-14T06:14:38.854Z,7.85
2022-08-14T06:17:05.748Z,7.57
2022-08-14T06:19:32.296Z,8.23
2022-08-14T06:21:59.507Z,8.27
2022-08-14T06:24:27.027Z,7.32
2022-08-14T06:26:54.172Z,6.95
2022-08-14T06:29:23.672Z,7.47
2022-08-14T06:31:54.460Z,7.22
2022-08-14T06:35:04.294Z,8.07
2022-08-14T06:37:13.459Z,7.32
2022-08-14T06:39:44.433Z,7.75
2022-08-14T06:42:32.498Z,7.15
2022-08-14T06:44:58.330Z,7.13
2022-08-14T06:47:25.139Z,7.72
2022-08-14T06:49:57.720Z,8.00
2022-08-14T06:52:24.872Z,6.90
2022-08-14T06:54:51.485Z,7.22
2022-08-14T06:57:18.725Z,7.18
2022-08-14T06:59:48.125Z,6.85
2022-08-14T07:02:35.935Z,6.80
2022-08-14T07:05:23.016Z,6.53
2022-08-14T07:07:50.968Z,6.55
2022-08-14T07:10:17.559Z,6.57
2022-08-14T07:13:01.144Z,6.85
2022-08-14T07:15:29.307Z,7.25
2022-08-14T07:17:55.994Z,6.68
2022-08-14T07:20:30.957Z,6.38
2022-08-14T07:23:09.411Z,7.32
2022-08-14T07:25:39.236Z,6.70
2022-08-14T07:28:26.886Z,6.90
2022-08-14T07:31:04.263Z,6.63
2022-08-14T07:33:45.545Z,6.80
2022-08-14T07:36:27.435Z,6.25
2022-08-14T07:39:00.884Z,6.80
2022-08-14T07:41:31.168Z,6.70
2022-08-14T07:44:29.635Z,6.47
2022-08-14T07:46:47.786Z,6.70
2022-08-14T07:49:17.631Z,6.60
2022-08-14T07:51:45.017Z,6.40
2022-08-14T07:54:12.148Z,7.03
2022-08-14T07:56:46.758Z,6.45
2022-08-14T07:59:16.796Z,6.43
2022-08-14T08:01:48.124Z,6.10
2022-08-14T08:04:24.172Z,6.45
2022-08-14T08:06:51.708Z,6.20
2022-08-14T08:09:18.486Z,6.28
2022-08-14T08:11:46.201Z,6.38
2022-08-14T08:14:21.550Z,6.47
2022-08-14T08:16:51.236Z,6.05
2022-08-14T08:19:19.019Z,6.85
2022-08-14T08:21:46.867Z,5.70
2022-08-14T08:24:13.736Z,6.20
2022-08-14T08:26:45.225Z,6.22
2022-08-14T08:29:19.106Z,6.20
2022-08-14T08:31:51.987Z,5.85
2022-08-14T08:34:19.546Z,5.90
2022-08-14T08:36:47.020Z,6.28
2022-08-14T08:39:18.823Z,6.00
2022-08-14T08:41:53.369Z,6.15
2022-08-14T08:44:31.738Z,5.72
2022-08-14T08:47:05.300Z,5.25
2022-08-14T08:49:43.253Z,5.47
2022-08-14T08:52:25.155Z,5.53
2022-08-14T08:54:56.139Z,5.90
2022-08-14T08:57:24.129Z,6.15
2022-08-14T08:59:55.356Z,5.60
2022-08-14T09:02:26.152Z,5.60
2022-08-14T09:05:02.296Z,5.93
2022-08-14T09:07:28.890Z,5.85
2022-08-14T09:10:00.190Z,5.85
2022-08-14T09:12:32.183Z,5.80
2022-08-14T09:15:01.166Z,5.43
2022-08-14T09:17:28.150Z,6.13
2022-08-14T09:19:55.362Z,5.60
2022-08-14T09:22:36.017Z,5.55
2022-08-14T09:25:07.406Z,5.45
2022-08-14T09:27:35.530Z,5.43
2022-08-14T09:30:31.692Z,4.95
2022-08-14T09:33:09.078Z,5.45
2022-08-14T09:35:59.427Z,4.65
2022-08-14T09:38:56.401Z,5.30
2022-08-14T09:42:17.423Z,5.28
2022-08-14T09:44:42.026Z,5.13
2022-08-14T09:47:14.753Z,6.30
2022-08-14T09:49:42.714Z,5.40
2022-08-14T09:52:33.038Z,5.10
2022-08-14T09:55:00.568Z,4.75
2022-08-14T09:57:30.296Z,5.40
2022-08-14T09:59:57.561Z,5.45
2022-08-14T10:02:34.378Z,5.18
2022-08-14T10:05:10.458Z,4.57
2022-08-14T10:07:53.648Z,4.60
2022-08-14T10:10:35.223Z,5.30
2022-08-14T10:13:03.354Z,4.82
2022-08-14T10:15:32.826Z,4.95
2022-08-14T10:18:09.488Z,4.85
2022-08-14T10:21:02.714Z,5.35
2022-08-14T10:23:44.357Z,4.55
2022-08-14T10:26:22.363Z,5.10
2022-08-14T10:29:14.028Z,5.20
2022-08-14T10:31:44.714Z,5.20
2022-08-14T10:34:14.150Z,5.63
2022-08-14T10:36:49.881Z,5.03
2022-08-14T10:39:25.814Z,5.00
2022-08-14T10:42:16.273Z,5.15
2022-08-14T10:44:52.363Z,5.47
2022-08-14T10:47:39.398Z,4.90
2022-08-14T10:50:07.696Z,5.53
2022-08-14T10:52:42.177Z,5.05
2022-08-14T10:55:15.124Z,5.38
2022-08-14T10:57:52.820Z,5.38
2022-08-14T11:00:30.094Z,4.68
2022-08-14T11:03:09.545Z,5.18
2022-08-14T11:05:44.854Z,4.70
2022-08-14T11:08:16.828Z,4.45
2022-08-14T11:10:55.759Z,5.35
2022-08-14T11:13:30.046Z,4.97
2022-08-14T11:16:02.180Z,5.20
2022-08-14T11:18:35.743Z,5.00
2022-08-14T11:21:06.549Z,5.10
2022-08-14T11:23:38.354Z,4.95
2022-08-14T11:26:07.738Z,4.60
2022-08-14T11:28:46.961Z,5.75
2022-08-14T11:31:24.649Z,5.07
2022-08-14T11:33:57.578Z,4.88
2022-08-14T11:36:35.164Z,4.50
2022-08-14T11:39:23.145Z,4.28
2022-08-14T11:42:57.421Z,4.53
2022-08-14T11:44:51.167Z,4.55
2022-08-14T11:47:20.478Z,4.25
2022-08-14T11:49:48.223Z,4.60
2022-08-14T11:52:19.276Z,4.50
2022-08-14T11:54:57.394Z,3.97
2022-08-14T11:57:23.951Z,4.05
2022-08-14T12:00:00.624Z,4.53
2022-08-14T12:03:00.942Z,4.68
2022-08-14T12:05:14.471Z,4.60
2022-08-14T12:07:50.186Z,4.95
2022-08-14T12:10:26.056Z,3.97
2022-08-14T12:12:56.928Z,4.22
2022-08-14T12:15:34.891Z,4.28
2022-08-14T12:18:02.737Z,4.22
2022-08-14T12:20:33.302Z,3.90
2022-08-14T12:23:01.876Z,4.32
2022-08-14T12:25:29.171Z,3.90
2022-08-14T12:27:59.107Z,3.50
2022-08-14T12:30:40.118Z,3.70
2022-08-14T12:33:30.861Z,3.70
2022-08-14T12:36:00.538Z,3.88
2022-08-14T12:38:44.091Z,4.15
2022-08-14T12:41:20.271Z,3.83
2022-08-14T12:43:59.835Z,4.18
2022-08-14T12:46:36.211Z,4.32
2022-08-14T12:49:10.021Z,3.95
2022-08-14T12:51:37.931Z,3.90
2022-08-14T12:54:19.412Z,3.90
2022-08-14T12:57:10.259Z,4.00
2022-08-14T12:59:43.174Z,4.10
2022-08-14T13:02:21.986Z,4.03
2022-08-14T13:04:55.469Z,4.35
2022-08-14T13:07:22.165Z,4.45
2022-08-14T13:09:55.267Z,3.92
2022-08-14T13:12:43.079Z,3.70
2022-08-14T13:15:15.601Z,4.25
2022-08-14T13:17:48.057Z,3.83
2022-08-14T13:20:24.652Z,4.30
2022-08-14T13:22:54.872Z,4.85
2022-08-14T13:25:26.053Z,3.97
2022-08-14T13:27:55.097Z,3.83
2022-08-14T13:30:24.509Z,4.45
2022-08-14T13:32:52.967Z,4.40
2022-08-14T13:35:20.043Z,4.30
2022-08-14T13:37:52.190Z,4.00
2022-08-14T13:40:26.559Z,4.32
2022-08-14T13:42:56.751Z,3.65
2022-08-14T13:45:33.797Z,4.43
2022-08-14T13:48:28.413Z,4.72
2022-08-14T13:50:59.722Z,4.15
2022-08-14T13:53:29.373Z,4.40
2022-08-14T13:56:00.377Z,4.70
2022-08-14T13:58:33.982Z,4.35
2022-08-14T14:01:02.624Z,4.70
2022-08-14T14:03:35.011Z,4.10
2022-08-14T14:06:02.770Z,4.50
2022-08-14T14:08:46.748Z,4.22
2022-08-14T14:11:16.516Z,4.35
2022-08-14T14:13:48.441Z,4.30
2022-08-14T14:16:26.432Z,4.40
2022-08-14T14:19:06.886Z,5.07
2022-08-14T14:21:36.337Z,4.40
2022-08-14T14:24:04.678Z,5.10
2022-08-14T14:26:33.225Z,4.15
2022-08-14T14:29:03.509Z,3.92
2022-08-14T14:31:30.934Z,4.10
2022-08-14T14:34:01.079Z,4.32
2022-08-14T14:36:35.173Z,4.50
2022-08-14T14:39:07.559Z,4.40
2022-08-14T14:41:43.475Z,4.90
2022-08-14T14:44:16.494Z,4.85
2022-08-14T14:46:49.408Z,4.65
2022-08-14T14:49:18.257Z,4.55
2022-08-14T14:51:51.352Z,4.60
2022-08-14T14:54:31.862Z,4.72
2022-08-14T14:57:04.661Z,4.40
2022-08-14T14:59:37.254Z,4.22
2022-08-14T15:02:09.392Z,4.47
2022-08-14T15:07:05.675Z,4.15
2022-08-14T15:09:33.589Z,4.30
2022-08-14T15:12:00.085Z,4.63
2022-08-14T15:14:57.068Z,4.65
2022-08-14T15:17:13.356Z,4.07
2022-08-14T15:19:41.965Z,4.60
2022-08-14T15:22:10.522Z,4.47
2022-08-14T15:24:38.194Z,4.15
2022-08-14T15:27:06.688Z,4.65
2022-08-14T15:29:38.636Z,5.03
2022-08-14T15:32:10.046Z,4.70
2022-08-14T15:34:51.168Z,4.85
2022-08-14T15:37:19.569Z,4.80
2022-08-14T15:39:46.188Z,4.40
2022-08-14T15:42:14.702Z,4.38
2022-08-14T15:44:57.768Z,4.63
2022-08-14T15:47:29.878Z,4.35
2022-08-14T15:50:04.331Z,4.70
2022-08-14T15:52:35.070Z,4.97
2022-08-14T15:55:08.979Z,4.47
2022-08-14T15:57:38.474Z,4.32
2022-08-14T16:00:43.750Z,4.18
2022-08-14T16:03:16.820Z,4.65
2022-08-14T16:05:45.785Z,4.95
2022-08-14T16:08:29.136Z,4.50
2022-08-14T16:10:58.818Z,5.10
2022-08-14T16:13:39.661Z,4.65
2022-08-14T16:16:47.587Z,4.80
2022-08-14T16:19:10.730Z,4.45
2022-08-14T16:22:01.586Z,4.78
2022-08-14T16:24:31.063Z,4.55
2022-08-14T16:27:00.297Z,4.85
2022-08-14T16:29:30.184Z,4.90
2022-08-14T16:31:59.108Z,4.88
2022-08-14T16:34:45.765Z,5.10
2022-08-14T16:37:16.415Z,5.15
2022-08-14T16:39:43.398Z,5.65
2022-08-14T16:42:39.519Z,5.63
2022-08-14T16:44:58.145Z,4.60
2022-08-14T16:47:25.517Z,4.57
2022-08-14T16:50:04.777Z,4.57
2022-08-14T16:52:44.954Z,4.53
2022-08-14T16:55:22.267Z,4.60
2022-08-14T16:57:58.749Z,4.55
2022-08-14T17:00:44.208Z,4.60
2022-08-14T17:03:12.704Z,4.38
2022-08-14T17:05:43.497Z,4.70
2022-08-14T17:08:32.486Z,4.82
2022-08-14T17:11:11.116Z,4.82
2022-08-14T17:13:48.013Z,4.50
2022-08-14T17:16:29.757Z,164.70
2022-08-14T17:19:00.587Z,224.93
2022-08-14T17:21:31.637Z,196.43
2022-08-14T17:24:56.244Z,247.98
2022-08-14T17:26:55.162Z,91.55
2022-08-14T17:29:29.394Z,41.83
2022-08-14T17:32:02.257Z,24.10
2022-08-14T17:34:50.276Z,16.45
2022-08-14T17:37:28.636Z,11.73
2022-08-14T17:40:02.727Z,5.43
2022-08-14T17:42:45.158Z,4.40
2022-08-14T17:45:38.788Z,4.13
2022-08-14T17:49:10.462Z,4.57
2022-08-14T17:51:12.169Z,4.93
2022-08-14T17:53:39.348Z,5.95
2022-08-14T17:56:20.703Z,4.60
2022-08-14T17:58:49.216Z,5.75
2022-08-14T18:01:17.524Z,5.75
2022-08-14T18:03:53.637Z,4.40
2022-08-14T18:06:34.353Z,4.88
2022-08-14T18:09:04.730Z,4.65
2022-08-14T18:11:45.974Z,5.15
2022-08-14T18:14:31.541Z,5.20
2022-08-14T18:17:00.791Z,4.78
2022-08-14T18:19:29.105Z,5.40
2022-08-14T18:21:59.884Z,4.75
2022-08-14T18:24:30.088Z,5.45
2022-08-14T18:27:17.308Z,5.65
2022-08-14T18:29:55.948Z,5.28
2022-08-14T18:32:26.794Z,5.28
2022-08-14T18:35:02.789Z,5.78
2022-08-14T18:37:39.261Z,78.75
2022-08-14T18:40:17.609Z,38.15
2022-08-14T18:42:49.590Z,30.67
2022-08-14T18:45:24.457Z,42.40
2022-08-14T18:48:15.740Z,8.68
2022-08-14T18:50:48.784Z,18.30
2022-08-14T18:53:19.730Z,35.60
2022-08-14T18:55:54.682Z,19.60
2022-08-14T18:58:31.663Z,11.88
2022-08-14T19:01:01.990Z,6.18
2022-08-14T19:03:36.854Z,6.47
2022-08-14T19:06:06.210Z,5.85
2022-08-14T19:08:49.523Z,27.75
2022-08-14T19:11:31.994Z,6.47
2022-08-14T19:13:59.729Z,5.70
2022-08-14T19:16:36.622Z,5.70
2022-08-14T19:19:08.570Z,5.95
2022-08-14T19:21:42.386Z,6.57
2022-08-14T19:24:27.701Z,6.10
2022-08-14T19:27:19.161Z,6.10
2022-08-14T19:29:47.854Z,6.00
2022-08-14T19:32:39.504Z,5.70
2022-08-14T19:35:48.855Z,5.60
2022-08-14T19:38:47.555Z,5.95
2022-08-14T19:41:16.109Z,5.75
2022-08-14T19:43:55.796Z,6.15
2022-08-14T19:46:38.206Z,5.88
2022-08-14T19:49:06.368Z,5.90
2022-08-14T19:51:40.910Z,6.00
2022-08-14T19:54:13.461Z,5.93
2022-08-14T19:56:45.374Z,6.13
2022-08-14T19:59:18.023Z,6.50
2022-08-14T20:01:49.371Z,5.93
2022-08-14T20:04:46.593Z,6.28
2022-08-14T20:07:27.132Z,5.90
2022-08-14T20:11:03.428Z,6.40
2022-08-14T20:13:13.217Z,5.78
2022-08-14T20:15:47.011Z,6.10
2022-08-14T20:18:27.154Z,6.30
2022-08-14T20:21:05.172Z,6.38
2022-08-14T20:23:38.518Z,6.35
2022-08-14T20:26:31.750Z,6.50
2022-08-14T20:29:04.713Z,7.20
2022-08-14T20:31:37.403Z,6.43
2022-08-14T20:34:07.721Z,6.28
2022-08-14T20:36:40.816Z,6.47
2022-08-14T20:39:15.736Z,6.32
2022-08-14T20:41:49.846Z,6.38
2022-08-14T20:44:40.987Z,6.72
2022-08-14T20:47:14.992Z,7.20
2022-08-14T20:49:41.600Z,7.32
2022-08-14T20:52:19.207Z,6.93
2022-08-14T20:54:50.469Z,6.97
2022-08-14T20:57:18.856Z,7.35
2022-08-14T20:59:57.340Z,6.65
2022-08-14T21:02:50.182Z,6.97
2022-08-14T21:05:21.798Z,6.93
2022-08-14T21:08:08.376Z,6.73
2022-08-14T21:10:47.646Z,7.00
2022-08-14T21:13:52.625Z,7.93
2022-08-14T21:16:05.399Z,7.35
2022-08-14T21:18:58.767Z,7.32
2022-08-14T21:21:40.901Z,7.65
2022-08-14T21:24:08.957Z,7.78
2022-08-14T21:27:02.158Z,8.27
2022-08-14T21:29:39.757Z,7.57
2022-08-14T21:32:20.818Z,7.25
2022-08-14T21:34:55.477Z,7.32
2022-08-14T21:37:22.905Z,7.50
2022-08-14T21:39:58.429Z,7.55
2022-08-14T21:42:28.063Z,8.05
2022-08-14T21:44:55.079Z,7.88
2022-08-14T21:47:23.778Z,8.10
2022-08-14T21:49:50.859Z,8.05
2022-08-14T21:52:51.652Z,7.53
2022-08-14T21:55:13.315Z,7.50
2022-08-14T21:58:03.990Z,7.93
2022-08-14T22:00:35.533Z,7.35
2022-08-14T22:03:10.957Z,7.13
2022-08-14T22:05:39.480Z,8.10
2022-08-14T22:08:07.607Z,7.75
2022-08-14T22:10:41.890Z,7.83
2022-08-14T22:13:11.310Z,7.60
2022-08-14T22:15:39.678Z,8.43
2022-08-14T22:18:12.222Z,7.43
2022-08-14T22:20:48.141Z,7.88
2022-08-14T22:25:47.320Z,7.70
2022-08-14T22:28:20.266Z,7.43
2022-08-14T22:30:47.637Z,7.88
2022-08-14T22:33:21.380Z,8.00
2022-08-14T22:35:48.180Z,8.65
2022-08-14T22:38:35.310Z,8.45
2022-08-14T22:41:27.584Z,8.50
2022-08-14T22:43:54.542Z,8.52
2022-08-14T22:46:21.065Z,8.40
2022-08-14T22:48:48.174Z,8.95
2022-08-14T22:51:17.720Z,7.97
2022-08-14T22:53:46.155Z,8.10
2022-08-14T22:56:20.215Z,8.15
2022-08-14T22:58:47.566Z,8.70
2022-08-14T23:01:22.851Z,8.73
2022-08-14T23:03:49.879Z,8.80
2022-08-14T23:07:02.019Z,8.25
2022-08-14T23:09:35.607Z,8.68
2022-08-14T23:11:51.685Z,8.52
2022-08-14T23:14:24.360Z,8.60
2022-08-14T23:16:57.232Z,8.65
2022-08-14T23:19:25.326Z,8.20
2022-08-14T23:22:01.037Z,8.43
2022-08-14T23:24:28.076Z,8.95
2022-08-14T23:26:55.705Z,8.48
2022-08-14T23:29:22.206Z,8.43
2022-08-14T23:31:49.207Z,8.77
2022-08-14T23:34:20.377Z,8.02
2022-08-14T23:36:54.428Z,8.48
2022-08-14T23:39:32.076Z,7.82
2022-08-14T23:42:02.448Z,8.43
2022-08-14T23:44:32.169Z,8.80
2022-08-14T23:47:05.756Z,8.88
2022-08-14T23:49:59.995Z,8.38
2022-08-14T23:52:56.087Z,8.88
2022-08-14T23:55:12.593Z,8.68
2022-08-14T23:57:44.183Z,8.95
